createdAt,value
2023-10-22T00:02:21.469Z,4.50
2023-10-22T00:04:48.453Z,6.63
2023-10-22T00:07:16.113Z,5.53
2023-10-22T00:09:43.118Z,6.10
2023-10-22T00:12:10.342Z,5.70
2023-10-22T00:14:38.473Z,6.18
2023-10-22T00:17:05.685Z,4.93
2023-10-22T00:19:46.161Z,5.65
2023-10-22T00:22:15.532Z,4.82
2023-10-22T00:24:42.767Z,5.45
2023-10-22T00:27:09.730Z,5.35
2023-10-22T00:29:36.666Z,4.38
2023-10-22T00:32:03.703Z,4.25
2023-10-22T00:34:31.236Z,4.30
2023-10-22T00:36:58.423Z,4.18
2023-10-22T00:39:25.520Z,4.57
2023-10-22T00:41:52.728Z,4.90
2023-10-22T00:44:19.893Z,5.03
2023-10-22T00:46:48.421Z,5.32
2023-10-22T00:49:18.061Z,5.90
2023-10-22T00:51:46.414Z,4.78
2023-10-22T00:54:16.087Z,4.82
2023-10-22T00:56:43.941Z,4.30
2023-10-22T00:59:15.509Z,3.83
2023-10-22T01:01:44.092Z,4.13
2023-10-22T01:04:12.277Z,4.60
2023-10-22T01:06:40.263Z,3.85
2023-10-22T01:09:11.352Z,4.38
2023-10-22T01:11:56.519Z,4.50
2023-10-22T01:14:23.715Z,4.47
2023-10-22T01:16:50.476Z,4.80
2023-10-22T01:19:17.618Z,4.65
2023-10-22T01:21:45.005Z,6.03
2023-10-22T01:24:11.911Z,6.95
2023-10-22T01:26:42.953Z,6.72
2023-10-22T01:29:10.130Z,7.20
2023-10-22T01:31:37.474Z,6.32
2023-10-22T01:34:05.260Z,7.68
2023-10-22T01:36:32.167Z,5.93
2023-10-22T01:38:59.650Z,4.85
2023-10-22T01:41:27.393Z,5.53
2023-10-22T01:43:55.244Z,4.45
2023-10-22T01:46:22.320Z,5.13
2023-10-22T01:48:49.539Z,3.97
2023-10-22T01:51:16.579Z,3.97
2023-10-22T01:53:44.003Z,4.07
2023-10-22T01:56:11.071Z,4.72
2023-10-22T01:58:38.352Z,4.07
2023-10-22T02:01:05.725Z,4.63
2023-10-22T02:03:36.960Z,4.45
2023-10-22T02:06:15.022Z,4.35
2023-10-22T02:08:42.843Z,4.55
2023-10-22T02:11:11.330Z,5.00
2023-10-22T02:13:39.177Z,4.70
2023-10-22T02:16:06.345Z,4.53
2023-10-22T02:18:35.327Z,4.22
2023-10-22T02:21:04.766Z,3.92
2023-10-22T02:23:32.077Z,3.72
2023-10-22T02:25:59.339Z,3.92
2023-10-22T02:28:26.246Z,3.75
2023-10-22T02:30:53.346Z,3.78
2023-10-22T02:33:20.362Z,3.88
2023-10-22T02:35:47.736Z,4.15
2023-10-22T02:38:16.991Z,3.90
2023-10-22T02:40:46.216Z,4.53
2023-10-22T02:43:13.225Z,3.08
2023-10-22T02:45:52.892Z,3.40
2023-10-22T02:48:20.753Z,3.53
2023-10-22T02:50:48.404Z,3.97
2023-10-22T02:53:15.634Z,3.85
2023-10-22T02:55:42.713Z,4.50
2023-10-22T02:58:09.795Z,3.50
2023-10-22T03:00:37.788Z,3.83
2023-10-22T03:03:05.345Z,3.50
2023-10-22T03:05:37.852Z,3.65
2023-10-22T03:08:05.209Z,4.05
2023-10-22T03:10:33.499Z,3.88
2023-10-22T03:13:02.174Z,3.28
2023-10-22T03:15:29.470Z,3.65
2023-10-22T03:17:58.596Z,4.00
2023-10-22T03:20:26.435Z,3.95
2023-10-22T03:22:54.879Z,3.95
2023-10-22T03:25:23.249Z,3.50
2023-10-22T03:27:51.098Z,4.05
2023-10-22T03:30:18.737Z,3.78
2023-10-22T03:32:46.511Z,3.60
2023-10-22T03:35:14.495Z,3.95
2023-10-22T03:37:42.446Z,4.10
2023-10-22T03:40:11.342Z,3.28
2023-10-22T03:42:38.800Z,4.25
2023-10-22T03:45:08.080Z,4.38
2023-10-22T03:47:35.225Z,3.33
2023-10-22T03:50:02.974Z,3.72
2023-10-22T03:52:30.638Z,4.13
2023-10-22T03:54:58.601Z,3.80
2023-10-22T03:57:26.429Z,4.30
2023-10-22T03:59:53.656Z,4.30
2023-10-22T04:02:20.583Z,4.15
2023-10-22T04:04:47.451Z,4.00
2023-10-22T04:07:14.446Z,3.80
2023-10-22T04:09:41.814Z,4.35
2023-10-22T04:12:09.641Z,4.45
2023-10-22T04:14:37.127Z,4.38
2023-10-22T04:17:04.469Z,4.32
2023-10-22T04:19:31.466Z,5.68
2023-10-22T04:21:58.471Z,4.47
2023-10-22T04:24:25.534Z,5.68
2023-10-22T04:26:52.552Z,6.40
2023-10-22T04:29:19.542Z,5.50
2023-10-22T04:31:46.695Z,5.72
2023-10-22T04:34:13.774Z,8.05
2023-10-22T04:36:40.769Z,7.30
2023-10-22T04:39:07.927Z,8.25
2023-10-22T04:41:34.892Z,7.72
2023-10-22T04:44:02.848Z,7.20
2023-10-22T04:46:29.803Z,7.40
2023-10-22T04:48:57.178Z,7.32
2023-10-22T04:51:25.338Z,7.30
2023-10-22T04:53:52.346Z,7.45
2023-10-22T04:56:19.439Z,7.28
2023-10-22T04:58:46.263Z,6.97
2023-10-22T05:01:13.293Z,7.45
2023-10-22T05:03:40.866Z,8.38
2023-10-22T05:06:10.378Z,7.20
2023-10-22T05:08:39.442Z,5.72
2023-10-22T05:11:09.826Z,8.13
2023-10-22T05:13:37.009Z,9.15
2023-10-22T05:16:04.239Z,7.10
2023-10-22T05:18:31.347Z,7.38
2023-10-22T05:21:03.598Z,7.80
2023-10-22T05:23:30.482Z,7.60
2023-10-22T05:26:08.549Z,8.05
2023-10-22T05:28:35.708Z,6.57
2023-10-22T05:31:02.796Z,6.80
2023-10-22T05:33:30.039Z,6.68
2023-10-22T05:35:57.545Z,7.38
2023-10-22T05:38:24.719Z,7.18
2023-10-22T05:40:52.010Z,7.38
2023-10-22T05:43:19.087Z,8.80
2023-10-22T05:45:46.481Z,7.35
2023-10-22T05:48:13.718Z,8.15
2023-10-22T05:50:40.891Z,8.65
2023-10-22T05:53:09.085Z,6.88
2023-10-22T05:55:36.442Z,6.30
2023-10-22T05:58:04.000Z,6.40
2023-10-22T06:00:31.115Z,6.55
2023-10-22T06:02:58.436Z,7.22
2023-10-22T06:05:25.672Z,6.07
2023-10-22T06:07:54.254Z,7.18
2023-10-22T06:10:21.311Z,6.97
2023-10-22T06:12:50.960Z,5.78
2023-10-22T06:15:18.045Z,5.32
2023-10-22T06:17:45.989Z,5.57
2023-10-22T06:20:13.123Z,5.85
2023-10-22T06:22:40.119Z,5.10
2023-10-22T06:25:07.579Z,5.57
2023-10-22T06:27:34.525Z,6.00
2023-10-22T06:30:01.910Z,5.95
2023-10-22T06:32:29.088Z,5.88
2023-10-22T06:34:56.263Z,6.85
2023-10-22T06:37:23.282Z,6.10
2023-10-22T06:39:52.376Z,5.93
2023-10-22T06:42:19.662Z,5.82
2023-10-22T06:44:46.653Z,7.85
2023-10-22T06:47:13.768Z,5.82
2023-10-22T06:49:40.762Z,7.25
2023-10-22T06:52:07.717Z,6.13
2023-10-22T06:54:34.862Z,6.60
2023-10-22T06:57:01.936Z,6.20
2023-10-22T06:59:29.869Z,6.55
2023-10-22T07:01:56.972Z,6.60
2023-10-22T07:04:24.181Z,6.65
2023-10-22T07:06:51.315Z,7.50
2023-10-22T07:09:18.498Z,6.70
2023-10-22T07:11:47.011Z,6.90
2023-10-22T07:14:14.342Z,7.35
2023-10-22T07:16:42.043Z,5.45
2023-10-22T07:19:09.080Z,6.50
2023-10-22T07:21:36.350Z,7.22
2023-10-22T07:24:03.524Z,5.57
2023-10-22T07:26:31.041Z,6.68
2023-10-22T07:28:58.184Z,8.05
2023-10-22T07:31:25.274Z,6.70
2023-10-22T07:33:52.635Z,7.50
2023-10-22T07:36:19.723Z,5.95
2023-10-22T07:38:47.105Z,5.47
2023-10-22T07:41:16.243Z,6.13
2023-10-22T07:43:43.455Z,5.32
2023-10-22T07:46:12.272Z,6.88
2023-10-22T07:48:39.457Z,6.00
2023-10-22T07:51:15.341Z,5.25
2023-10-22T07:53:42.774Z,4.70
2023-10-22T07:56:11.387Z,5.30
2023-10-22T07:58:40.521Z,5.80
2023-10-22T08:01:08.061Z,5.68
2023-10-22T08:03:35.906Z,6.00
2023-10-22T08:06:04.564Z,6.35
2023-10-22T08:08:32.119Z,5.28
2023-10-22T08:11:04.177Z,6.53
2023-10-22T08:13:31.766Z,6.15
2023-10-22T08:15:58.719Z,5.50
2023-10-22T08:18:25.982Z,5.00
2023-10-22T08:20:53.386Z,5.28
2023-10-22T08:23:20.527Z,5.32
2023-10-22T08:25:54.548Z,5.88
2023-10-22T08:28:21.662Z,6.30
2023-10-22T08:30:49.460Z,8.15
2023-10-22T08:33:16.976Z,6.00
2023-10-22T08:35:44.457Z,6.80
2023-10-22T08:38:12.147Z,5.65
2023-10-22T08:40:42.834Z,6.20
2023-10-22T08:43:20.027Z,5.78
2023-10-22T08:45:50.195Z,5.63
2023-10-22T08:48:18.725Z,5.10
2023-10-22T08:50:48.404Z,5.85
2023-10-22T08:53:16.650Z,4.97
2023-10-22T08:55:49.078Z,5.82
2023-10-22T08:58:18.071Z,5.93
2023-10-22T09:00:46.902Z,5.78
2023-10-22T09:03:15.914Z,7.07
2023-10-22T09:05:43.840Z,6.25
2023-10-22T09:08:11.705Z,6.47
2023-10-22T09:10:39.417Z,6.57
2023-10-22T09:13:15.916Z,6.53
2023-10-22T09:15:45.561Z,6.38
2023-10-22T09:18:13.669Z,3.63
2023-10-22T09:20:42.520Z,3.03
2023-10-22T09:23:20.588Z,2.55
2023-10-22T09:25:57.474Z,2.70
2023-10-22T09:28:26.600Z,2.88
2023-10-22T09:31:05.377Z,2.45
2023-10-22T09:33:34.083Z,3.15
2023-10-22T09:36:09.339Z,2.60
2023-10-22T09:38:50.497Z,2.83
2023-10-22T09:44:02.097Z,2.58
2023-10-22T09:46:33.990Z,3.25
2023-10-22T09:49:05.900Z,2.05
2023-10-22T09:51:35.841Z,2.20
2023-10-22T09:54:08.141Z,2.45
2023-10-22T09:56:51.989Z,2.67
2023-10-22T09:59:24.022Z,3.72
2023-10-22T10:01:52.708Z,2.75
2023-10-22T10:04:22.351Z,3.13
2023-10-22T10:06:51.061Z,3.33
2023-10-22T10:09:18.268Z,3.10
2023-10-22T10:11:46.000Z,2.70
2023-10-22T10:14:33.642Z,2.30
2023-10-22T10:17:03.590Z,5.30
2023-10-22T10:19:31.062Z,2.30
2023-10-22T10:21:58.360Z,2.55
2023-10-22T10:24:29.611Z,3.13
2023-10-22T10:26:57.518Z,2.88
2023-10-22T10:29:26.826Z,2.08
2023-10-22T10:31:56.594Z,2.38
2023-10-22T10:34:33.949Z,2.47
2023-10-22T10:37:23.129Z,2.47
2023-10-22T10:39:54.855Z,3.38
2023-10-22T10:42:30.967Z,2.55
2023-10-22T10:45:02.306Z,3.17
2023-10-22T10:47:37.687Z,2.67
2023-10-22T10:50:13.325Z,2.97
2023-10-22T10:52:43.601Z,2.65
2023-10-22T10:55:19.805Z,2.60
2023-10-22T10:57:51.708Z,3.13
2023-10-22T11:00:25.771Z,3.30
2023-10-22T11:02:54.324Z,2.22
2023-10-22T11:05:41.341Z,2.20
2023-10-22T11:08:23.458Z,3.10
2023-10-22T11:10:50.802Z,3.05
2023-10-22T11:13:27.096Z,3.33
2023-10-22T11:16:04.037Z,2.45
2023-10-22T11:18:31.128Z,3.20
2023-10-22T11:20:58.653Z,2.55
2023-10-22T11:23:26.008Z,2.65
2023-10-22T11:25:53.407Z,3.50
2023-10-22T11:28:20.622Z,2.58
2023-10-22T11:30:47.837Z,3.03
2023-10-22T11:33:36.085Z,2.90
2023-10-22T11:36:18.071Z,2.45
2023-10-22T11:38:45.267Z,2.63
2023-10-22T11:41:12.308Z,2.40
2023-10-22T11:43:44.493Z,2.78
2023-10-22T11:46:12.515Z,2.90
2023-10-22T11:48:45.917Z,2.53
2023-10-22T11:51:13.163Z,2.85
2023-10-22T11:53:42.376Z,2.38
2023-10-22T11:56:09.820Z,2.70
2023-10-22T11:58:37.187Z,2.63
2023-10-22T12:01:04.223Z,2.78
2023-10-22T12:03:31.154Z,3.05
2023-10-22T12:05:58.362Z,2.92
2023-10-22T12:08:25.470Z,2.10
2023-10-22T12:10:52.675Z,2.63
2023-10-22T12:13:19.728Z,2.28
2023-10-22T12:15:46.961Z,4.00
2023-10-22T12:18:14.649Z,2.75
2023-10-22T12:20:41.790Z,3.00
2023-10-22T12:23:12.411Z,3.35
2023-10-22T12:25:39.871Z,2.67
2023-10-22T12:28:07.369Z,2.88
2023-10-22T12:30:36.061Z,2.22
2023-10-22T12:33:03.637Z,3.40
2023-10-22T12:35:31.425Z,3.58
2023-10-22T12:37:58.847Z,2.72
2023-10-22T12:40:25.900Z,2.92
2023-10-22T12:42:53.174Z,2.80
2023-10-22T12:45:20.832Z,2.92
2023-10-22T12:47:47.835Z,2.58
2023-10-22T12:50:15.193Z,2.70
2023-10-22T12:52:42.164Z,3.38
2023-10-22T12:55:09.575Z,2.72
2023-10-22T12:57:36.923Z,2.45
2023-10-22T13:00:13.924Z,2.60
2023-10-22T13:02:42.281Z,3.28
2023-10-22T13:05:09.569Z,2.35
2023-10-22T13:07:37.686Z,3.58
2023-10-22T13:10:06.124Z,2.80
2023-10-22T13:12:33.681Z,3.53
2023-10-22T13:15:01.324Z,3.47
2023-10-22T13:17:29.388Z,3.25
2023-10-22T13:19:56.441Z,2.50
2023-10-22T13:22:23.930Z,3.03
2023-10-22T13:24:51.103Z,3.20
2023-10-22T13:27:18.502Z,3.42
2023-10-22T13:29:45.614Z,2.90
2023-10-22T13:32:13.921Z,2.80
2023-10-22T13:34:42.422Z,4.05
2023-10-22T13:37:09.501Z,3.25
2023-10-22T13:39:36.645Z,3.28
2023-10-22T13:42:04.188Z,3.58
2023-10-22T13:44:31.142Z,3.05
2023-10-22T13:46:58.481Z,3.38
2023-10-22T13:49:25.823Z,3.67
2023-10-22T13:51:52.928Z,4.15
2023-10-22T13:54:19.952Z,3.20
2023-10-22T13:56:47.543Z,2.95
2023-10-22T13:59:16.162Z,3.65
2023-10-22T14:01:43.308Z,3.30
2023-10-22T14:04:10.792Z,3.78
2023-10-22T14:06:37.953Z,3.20
2023-10-22T14:09:05.217Z,2.95
2023-10-22T14:11:32.253Z,3.60
2023-10-22T14:13:59.837Z,3.35
2023-10-22T14:16:27.321Z,3.83
2023-10-22T14:18:54.779Z,4.25
2023-10-22T14:21:23.138Z,3.53
2023-10-22T14:23:50.274Z,2.90
2023-10-22T14:26:17.805Z,4.07
2023-10-22T14:28:44.859Z,3.42
2023-10-22T14:31:12.337Z,3.47
2023-10-22T14:33:39.495Z,4.07
2023-10-22T14:36:09.842Z,3.75
2023-10-22T14:38:36.793Z,3.78
2023-10-22T14:41:07.280Z,4.57
2023-10-22T14:43:34.475Z,6.68
2023-10-22T14:46:02.352Z,5.93
2023-10-22T14:48:30.198Z,4.45
2023-10-22T14:51:02.338Z,4.22
2023-10-22T14:53:30.401Z,5.28
2023-10-22T14:55:58.751Z,4.32
2023-10-22T14:58:26.277Z,4.22
2023-10-22T15:00:53.518Z,4.30
2023-10-22T15:03:21.406Z,4.43
2023-10-22T15:05:50.279Z,4.45
2023-10-22T15:08:17.923Z,3.78
2023-10-22T15:10:46.098Z,3.60
2023-10-22T15:13:13.981Z,4.28
2023-10-22T15:15:48.404Z,3.55
2023-10-22T15:18:16.628Z,3.67
2023-10-22T15:20:49.246Z,3.58
2023-10-22T15:23:18.687Z,3.90
2023-10-22T15:25:50.871Z,5.82
2023-10-22T15:28:18.820Z,5.65
2023-10-22T15:30:47.568Z,6.32
2023-10-22T15:33:15.375Z,7.28
2023-10-22T15:35:42.377Z,5.93
2023-10-22T15:38:11.676Z,7.75
2023-10-22T15:40:38.589Z,7.68
2023-10-22T15:43:05.580Z,5.03
2023-10-22T15:45:33.217Z,4.43
2023-10-22T15:48:02.649Z,6.55
2023-10-22T15:50:30.565Z,5.40
2023-10-22T15:52:59.734Z,4.90
2023-10-22T15:55:26.625Z,5.35
2023-10-22T15:57:53.614Z,6.75
2023-10-22T16:00:22.946Z,5.85
2023-10-22T16:02:50.385Z,6.30
2023-10-22T16:05:18.380Z,5.95
2023-10-22T16:07:45.394Z,6.07
2023-10-22T16:10:12.823Z,6.82
2023-10-22T16:12:40.779Z,6.13
2023-10-22T16:15:09.070Z,6.57
2023-10-22T16:17:42.833Z,5.80
2023-10-22T16:20:11.302Z,6.00
2023-10-22T16:22:39.027Z,6.07
2023-10-22T16:25:06.674Z,5.30
2023-10-22T16:27:34.272Z,5.45
2023-10-22T16:30:01.622Z,6.15
2023-10-22T16:32:28.940Z,5.95
2023-10-22T16:34:56.086Z,6.80
2023-10-22T16:37:23.171Z,5.65
2023-10-22T16:39:50.378Z,5.13
2023-10-22T16:42:17.234Z,5.55
2023-10-22T16:44:44.176Z,5.28
2023-10-22T16:47:11.259Z,4.90
2023-10-22T16:49:38.584Z,5.00
2023-10-22T16:52:05.965Z,5.28
2023-10-22T16:54:33.097Z,5.13
2023-10-22T16:57:02.005Z,5.35
2023-10-22T16:59:29.006Z,5.30
2023-10-22T17:01:56.263Z,5.00
2023-10-22T17:04:23.516Z,6.45
2023-10-22T17:06:51.373Z,7.50
2023-10-22T17:09:18.500Z,6.57
2023-10-22T17:11:45.592Z,13.75
2023-10-22T17:14:13.286Z,11.75
2023-10-22T17:16:41.546Z,14.50
2023-10-22T17:19:08.721Z,15.98
2023-10-22T17:21:36.160Z,15.85
2023-10-22T17:24:03.275Z,20.23
2023-10-22T17:26:30.272Z,19.67
2023-10-22T17:28:57.527Z,18.55
2023-10-22T17:31:25.693Z,18.77
2023-10-22T17:34:04.805Z,15.32
2023-10-22T17:36:33.039Z,16.05
2023-10-22T17:39:00.225Z,13.68
2023-10-22T17:41:27.584Z,12.95
2023-10-22T17:43:54.633Z,12.15
2023-10-22T17:46:21.755Z,13.23
2023-10-22T17:48:50.296Z,12.00
2023-10-22T17:51:17.766Z,12.88
2023-10-22T17:53:48.276Z,13.15
2023-10-22T17:56:15.680Z,13.15
2023-10-22T17:58:42.966Z,12.38
2023-10-22T18:01:10.185Z,11.77
2023-10-22T18:03:38.962Z,9.77
2023-10-22T18:06:06.961Z,10.00
2023-10-22T18:08:36.492Z,10.35
2023-10-22T18:11:04.445Z,7.85
2023-10-22T18:13:32.552Z,6.93
2023-10-22T18:15:59.700Z,7.97
2023-10-22T18:18:27.298Z,7.60
2023-10-22T18:20:56.115Z,8.18
2023-10-22T18:23:25.622Z,8.75
2023-10-22T18:26:00.385Z,8.75
2023-10-22T18:28:27.615Z,7.07
2023-10-22T18:30:54.825Z,6.10
2023-10-22T18:33:21.909Z,5.65
2023-10-22T18:35:48.997Z,6.82
2023-10-22T18:38:17.882Z,6.45
2023-10-22T18:40:48.096Z,6.22
2023-10-22T18:43:16.385Z,6.03
2023-10-22T18:45:44.222Z,6.45
2023-10-22T18:48:13.669Z,6.50
2023-10-22T18:50:40.938Z,6.30
2023-10-22T18:53:08.547Z,6.22
2023-10-22T18:55:35.811Z,6.68
2023-10-22T18:58:03.057Z,6.07
2023-10-22T19:00:30.365Z,7.00
2023-10-22T19:02:57.477Z,6.05
2023-10-22T19:05:24.654Z,6.85
2023-10-22T19:07:51.776Z,5.78
2023-10-22T19:10:19.013Z,5.65
2023-10-22T19:12:46.186Z,5.13
2023-10-22T19:15:13.688Z,4.63
2023-10-22T19:17:42.928Z,4.68
2023-10-22T19:20:11.081Z,4.88
2023-10-22T19:22:38.326Z,9.20
2023-10-22T19:25:06.182Z,5.55
2023-10-22T19:27:38.254Z,5.50
2023-10-22T19:30:06.997Z,6.38
2023-10-22T19:32:35.139Z,5.90
2023-10-22T19:35:02.562Z,6.43
2023-10-22T19:37:29.899Z,6.05
2023-10-22T19:39:56.858Z,5.25
2023-10-22T19:42:27.188Z,5.45
2023-10-22T19:44:54.166Z,6.95
2023-10-22T19:47:21.685Z,7.05
2023-10-22T19:49:48.671Z,5.88
2023-10-22T19:52:29.630Z,6.13
2023-10-22T19:55:01.290Z,5.80
2023-10-22T19:57:28.570Z,5.65
2023-10-22T19:59:55.730Z,6.63
2023-10-22T20:02:22.806Z,6.10
2023-10-22T20:04:50.077Z,7.07
2023-10-22T20:07:17.151Z,7.13
2023-10-22T20:09:44.117Z,7.53
2023-10-22T20:12:11.306Z,7.38
2023-10-22T20:14:39.884Z,6.65
2023-10-22T20:17:07.660Z,6.45
2023-10-22T20:19:34.705Z,5.90
2023-10-22T20:22:01.842Z,6.65
2023-10-22T20:24:30.811Z,6.40
2023-10-22T20:27:00.506Z,6.38
2023-10-22T20:29:27.598Z,6.28
2023-10-22T20:31:54.669Z,6.15
2023-10-22T20:34:22.007Z,6.10
2023-10-22T20:36:49.390Z,6.63
2023-10-22T20:39:16.746Z,6.10
2023-10-22T20:41:43.633Z,7.35
2023-10-22T20:44:10.473Z,6.75
2023-10-22T20:46:37.595Z,6.50
2023-10-22T20:49:04.935Z,6.00
2023-10-22T20:51:32.222Z,6.30
2023-10-22T20:53:59.480Z,6.53
2023-10-22T20:56:26.607Z,5.60
2023-10-22T20:58:53.607Z,6.63
2023-10-22T21:01:22.479Z,7.22
2023-10-22T21:03:50.153Z,6.90
2023-10-22T21:06:18.219Z,5.88
2023-10-22T21:08:45.914Z,7.20
2023-10-22T21:11:13.587Z,7.13
2023-10-22T21:13:40.963Z,7.13
2023-10-22T21:16:09.449Z,5.55
2023-10-22T21:18:38.189Z,4.40
2023-10-22T21:21:05.292Z,4.82
2023-10-22T21:23:32.208Z,5.00
2023-10-22T21:26:01.738Z,4.80
2023-10-22T21:28:28.699Z,4.38
2023-10-22T21:30:58.991Z,5.25
2023-10-22T21:33:25.897Z,5.18
2023-10-22T21:36:06.263Z,4.50
2023-10-22T21:38:33.693Z,7.15
2023-10-22T21:41:01.105Z,5.68
2023-10-22T21:43:28.391Z,5.53
2023-10-22T21:46:06.635Z,5.18
2023-10-22T21:48:33.917Z,5.88
2023-10-22T21:51:00.920Z,6.32
2023-10-22T21:53:27.995Z,6.88
2023-10-22T21:55:56.260Z,6.50
2023-10-22T21:58:23.653Z,6.05
2023-10-22T22:00:50.880Z,4.80
2023-10-22T22:03:17.975Z,8.07
2023-10-22T22:05:45.099Z,6.85
2023-10-22T22:08:11.952Z,5.50
2023-10-22T22:10:39.080Z,5.50
2023-10-22T22:13:06.255Z,5.28
2023-10-22T22:15:33.394Z,5.00
2023-10-22T22:18:00.438Z,5.07
2023-10-22T22:20:27.559Z,5.57
2023-10-22T22:22:54.699Z,4.65
2023-10-22T22:25:26.612Z,4.32
2023-10-22T22:28:00.513Z,4.85
2023-10-22T22:30:27.803Z,4.65
2023-10-22T22:32:54.895Z,4.95
2023-10-22T22:35:22.305Z,4.05
2023-10-22T22:37:49.315Z,4.65
2023-10-22T22:40:16.377Z,4.55
2023-10-22T22:42:43.389Z,6.63
2023-10-22T22:45:11.906Z,5.10
2023-10-22T22:47:39.047Z,4.18
2023-10-22T22:50:07.591Z,4.55
2023-10-22T22:52:34.689Z,4.97
2023-10-22T22:55:01.730Z,4.10
2023-10-22T22:57:28.770Z,3.92
2023-10-22T23:00:06.029Z,3.97
2023-10-22T23:02:34.440Z,4.30
2023-10-22T23:05:01.820Z,4.28
2023-10-22T23:07:29.713Z,4.45
2023-10-22T23:09:56.668Z,4.60
2023-10-22T23:12:24.145Z,3.92
2023-10-22T23:14:52.906Z,4.70
2023-10-22T23:17:19.834Z,4.65
2023-10-22T23:19:47.258Z,4.80
2023-10-22T23:22:14.364Z,4.07
2023-10-22T23:24:41.685Z,3.80
2023-10-22T23:27:09.247Z,4.32
2023-10-22T23:29:36.483Z,5.25
2023-10-22T23:32:04.104Z,4.43
2023-10-22T23:34:31.177Z,5.20
2023-10-22T23:36:58.196Z,4.30
2023-10-22T23:39:25.657Z,4.55
2023-10-22T23:41:53.120Z,3.50
2023-10-22T23:44:20.089Z,4.45
2023-10-22T23:46:47.157Z,4.13
2023-10-22T23:49:14.088Z,4.30
2023-10-22T23:51:41.096Z,4.68
2023-10-22T23:54:08.163Z,4.43
2023-10-22T23:56:35.118Z,4.15
2023-10-22T23:59:04.868Z,4.60
